F/V Berriz Patxiku — ECES — position and weather

sailwx.info

Track history (hours):
 
Tides and Currents Weather Stations Pressure Air Temp Water Temp Dewpoint Dewpoint Depression Visibility Wind Speed Wind Dir Waves Ship Positions

F/V Berriz Patxiku

Last reported at 2014-Aug-29 06:26 UTC. Time now 2014-Aug-31 02:33 UTC.
Position N 43°25' W 002°29'.

Length 30 m.

Type: Fishing. MMSI: 224106260.

Date/timePositionNaut miles runAvg speedWind from/ knotsBaromVisibWave heightAir tempDewpointWater temp
2014-Aug-29 06:26N 43°25' W 002°29'5 6.2
2014-Aug-29 05:33N 43°28' W 002°36'1 0.7
2014-Aug-29 04:33N 43°28' W 002°37'0 0.3
2014-Aug-29 03:33N 43°28' W 002°37'1 0.9
2014-Aug-29 02:33N 43°28' W 002°38'0 0.3
2014-Aug-29 01:33N 43°28' W 002°39'0 0.5
2014-Aug-29 00:33N 43°28' W 002°39'0 0.4
2014-Aug-28 23:33N 43°28' W 002°40'0 0.2
2014-Aug-28 22:32N 43°28' W 002°40'0 0.1
2014-Aug-28 21:32N 43°28' W 002°40'0 0.4
2014-Aug-28 20:24N 43°29' W 002°40'23 3.3
2014-Aug-28 13:32N 43°18' W 002°12'10 0.3
2014-Aug-27 03:24N 43°22' W 001°60'6 1.2
2014-Aug-26 22:26N 43°20' W 002°08'41 2.2
2014-Aug-26 03:33N 43°55' W 001°38'6 6.1
2014-Aug-26 02:33N 43°50' W 001°36'9 8.7
2014-Aug-26 01:33N 43°43' W 001°43'3 2.5
2014-Aug-26 00:33N 43°40' W 001°45'1 0.3
2014-Aug-25 22:33N 43°40' W 001°46'2 1.8
2014-Aug-25 21:33N 43°39' W 001°48'0 0.4
2014-Aug-25 20:33N 43°39' W 001°48'19 8.5
2014-Aug-25 18:15N 43°24' W 002°06'6 8.9
2014-Aug-25 17:33N 43°19' W 002°11'2 0.2
2014-Aug-25 04:20N 43°20' W 002°08'5 2.0
2014-Aug-25 01:33N 43°22' W 002°14'2 0.5
2014-Aug-24 22:09N 43°22' W 002°12'  
2014-Aug-22 05:30N 43°31' W 002°02'4 0.4
2014-Aug-21 18:34N 43°32' W 002°07'7 0.5
2014-Aug-21 05:13N 43°32' W 001°58'7 9.6
2014-Aug-21 04:30N 43°38' W 001°53'4 3.9
2014-Aug-21 03:33N 43°38' W 001°48'0 0.1
2014-Aug-21 02:32N 43°38' W 001°48'0 0.2
2014-Aug-21 01:32N 43°38' W 001°48'0 0.1
2014-Aug-20 23:30N 43°38' W 001°48'31 1.8
2014-Aug-20 06:17N 43°24' W 002°26'7 9.7
2014-Aug-20 05:33N 43°27' W 002°35'10 9.5
2014-Aug-20 04:33N 43°30' W 002°47'9 9.3
2014-Aug-20 03:34N 43°31' W 003°00'10 9.5
2014-Aug-20 02:34N 43°33' W 003°13'0 0.0
2014-Aug-20 01:34N 43°33' W 003°13'0 0.2
2014-Aug-20 00:34N 43°33' W 003°13'0 0.4
2014-Aug-19 23:34N 43°33' W 003°13'0 0.2
2014-Aug-19 22:34N 43°33' W 003°13'0 0.2
2014-Aug-19 21:34N 43°33' W 003°13'0 0.5
2014-Aug-19 20:34N 43°32' W 003°13'5 5.1
2014-Aug-19 19:34N 43°31' W 003°07'10 9.7
2014-Aug-19 18:34N 43°30' W 002°53'1010.0
2014-Aug-19 17:34N 43°27' W 002°40'  
Track history (hours):
 
Tides and Currents Weather Stations Pressure Air Temp Water Temp Dewpoint Dewpoint Depression Visibility Wind Speed Wind Dir Waves Ship Positions

F/V Berriz Patxiku

Last reported at 2014-Aug-29 06:26 UTC. Time now 2014-Aug-31 02:33 UTC.
Position N 43°25' W 002°29'.

Length 30 m.

Type: Fishing. MMSI: 224106260.

Date/timePositionNaut miles runAvg speedWind from/ knotsBaromVisibWave heightAir tempDewpointWater temp
2014-Aug-29 06:26N 43°25' W 002°29'5 6.2
2014-Aug-29 05:33N 43°28' W 002°36'1 0.7
2014-Aug-29 04:33N 43°28' W 002°37'0 0.3
2014-Aug-29 03:33N 43°28' W 002°37'1 0.9
2014-Aug-29 02:33N 43°28' W 002°38'0 0.3
2014-Aug-29 01:33N 43°28' W 002°39'0 0.5
2014-Aug-29 00:33N 43°28' W 002°39'0 0.4
2014-Aug-28 23:33N 43°28' W 002°40'0 0.2
2014-Aug-28 22:32N 43°28' W 002°40'0 0.1
2014-Aug-28 21:32N 43°28' W 002°40'0 0.4
2014-Aug-28 20:24N 43°29' W 002°40'23 3.3
2014-Aug-28 13:32N 43°18' W 002°12'10 0.3
2014-Aug-27 03:24N 43°22' W 001°60'6 1.2
2014-Aug-26 22:26N 43°20' W 002°08'41 2.2
2014-Aug-26 03:33N 43°55' W 001°38'6 6.1
2014-Aug-26 02:33N 43°50' W 001°36'9 8.7
2014-Aug-26 01:33N 43°43' W 001°43'3 2.5
2014-Aug-26 00:33N 43°40' W 001°45'1 0.3
2014-Aug-25 22:33N 43°40' W 001°46'2 1.8
2014-Aug-25 21:33N 43°39' W 001°48'0 0.4
2014-Aug-25 20:33N 43°39' W 001°48'19 8.5
2014-Aug-25 18:15N 43°24' W 002°06'6 8.9
2014-Aug-25 17:33N 43°19' W 002°11'2 0.2
2014-Aug-25 04:20N 43°20' W 002°08'5 2.0
2014-Aug-25 01:33N 43°22' W 002°14'2 0.5
2014-Aug-24 22:09N 43°22' W 002°12'  
2014-Aug-22 05:30N 43°31' W 002°02'4 0.4
2014-Aug-21 18:34N 43°32' W 002°07'7 0.5
2014-Aug-21 05:13N 43°32' W 001°58'7 9.6
2014-Aug-21 04:30N 43°38' W 001°53'4 3.9
2014-Aug-21 03:33N 43°38' W 001°48'0 0.1
2014-Aug-21 02:32N 43°38' W 001°48'0 0.2
2014-Aug-21 01:32N 43°38' W 001°48'0 0.1
2014-Aug-20 23:30N 43°38' W 001°48'31 1.8
2014-Aug-20 06:17N 43°24' W 002°26'7 9.7
2014-Aug-20 05:33N 43°27' W 002°35'10 9.5
2014-Aug-20 04:33N 43°30' W 002°47'9 9.3
2014-Aug-20 03:34N 43°31' W 003°00'10 9.5
2014-Aug-20 02:34N 43°33' W 003°13'0 0.0
2014-Aug-20 01:34N 43°33' W 003°13'0 0.2
2014-Aug-20 00:34N 43°33' W 003°13'0 0.4
2014-Aug-19 23:34N 43°33' W 003°13'0 0.2
2014-Aug-19 22:34N 43°33' W 003°13'0 0.2
2014-Aug-19 21:34N 43°33' W 003°13'0 0.5
2014-Aug-19 20:34N 43°32' W 003°13'5 5.1
2014-Aug-19 19:34N 43°31' W 003°07'10 9.7
2014-Aug-19 18:34N 43°30' W 002°53'1010.0
2014-Aug-19 17:34N 43°27' W 002°40'  

Dump ship's entire track history